sensor_id;sensor_type;location;lat;lon;timestamp;P1;durP1;ratioP1;P2;durP2;ratioP2
52057;SDS011;38063;53.210;6.504;2022-08-20T00:00:59;12.02;;;6.28;;
52057;SDS011;38063;53.210;6.504;2022-08-20T00:03:27;16.45;;;6.05;;
52057;SDS011;38063;53.210;6.504;2022-08-20T00:06:00;10.48;;;5.90;;
52057;SDS011;38063;53.210;6.504;2022-08-20T00:08:26;12.75;;;6.25;;
52057;SDS011;38063;53.210;6.504;2022-08-20T00:10:52;10.50;;;5.78;;
52057;SDS011;38063;53.210;6.504;2022-08-20T00:13:21;10.35;;;6.30;;
52057;SDS011;38063;53.210;6.504;2022-08-20T00:15:54;17.63;;;6.97;;
52057;SDS011;38063;53.210;6.504;2022-08-20T00:18:20;12.10;;;6.55;;
52057;SDS011;38063;53.210;6.504;2022-08-20T00:20:48;11.95;;;6.95;;
52057;SDS011;38063;53.210;6.504;2022-08-20T00:23:15;11.20;;;6.18;;
52057;SDS011;38063;53.210;6.504;2022-08-20T00:25:42;12.10;;;6.45;;
52057;SDS011;38063;53.210;6.504;2022-08-20T00:28:08;10.20;;;5.63;;
52057;SDS011;38063;53.210;6.504;2022-08-20T00:30:36;11.38;;;6.10;;
52057;SDS011;38063;53.210;6.504;2022-08-20T00:33:10;11.88;;;6.22;;
52057;SDS011;38063;53.210;6.504;2022-08-20T00:35:39;12.43;;;6.40;;
52057;SDS011;38063;53.210;6.504;2022-08-20T00:38:08;13.27;;;6.75;;
52057;SDS011;38063;53.210;6.504;2022-08-20T00:40:44;15.70;;;6.88;;
52057;SDS011;38063;53.210;6.504;2022-08-20T00:45:53;12.48;;;6.53;;
52057;SDS011;38063;53.210;6.504;2022-08-20T00:48:25;13.43;;;6.40;;
52057;SDS011;38063;53.210;6.504;2022-08-20T00:50:56;15.35;;;6.85;;
52057;SDS011;38063;53.210;6.504;2022-08-20T00:53:26;14.63;;;6.50;;
52057;SDS011;38063;53.210;6.504;2022-08-20T00:55:52;14.80;;;7.07;;
52057;SDS011;38063;53.210;6.504;2022-08-20T00:58:18;15.23;;;6.78;;
52057;SDS011;38063;53.210;6.504;2022-08-20T01:00:45;13.18;;;6.80;;
52057;SDS011;38063;53.210;6.504;2022-08-20T01:03:14;17.00;;;6.97;;
52057;SDS011;38063;53.210;6.504;2022-08-20T01:05:42;12.15;;;6.88;;
52057;SDS011;38063;53.210;6.504;2022-08-20T01:08:11;13.43;;;6.47;;
52057;SDS011;38063;53.210;6.504;2022-08-20T01:10:38;11.95;;;6.47;;
52057;SDS011;38063;53.210;6.504;2022-08-20T01:13:10;15.55;;;7.38;;
52057;SDS011;38063;53.210;6.504;2022-08-20T01:15:38;13.43;;;6.20;;
52057;SDS011;38063;53.210;6.504;2022-08-20T01:18:06;16.70;;;6.97;;
52057;SDS011;38063;53.210;6.504;2022-08-20T01:20:37;19.63;;;6.57;;
52057;SDS011;38063;53.210;6.504;2022-08-20T01:23:15;18.05;;;6.43;;
52057;SDS011;38063;53.210;6.504;2022-08-20T01:31:15;13.73;;;6.65;;
52057;SDS011;38063;53.210;6.504;2022-08-20T01:33:44;21.55;;;8.13;;
52057;SDS011;38063;53.210;6.504;2022-08-20T01:36:13;14.77;;;7.13;;
52057;SDS011;38063;53.210;6.504;2022-08-20T01:38:40;12.48;;;7.15;;
52057;SDS011;38063;53.210;6.504;2022-08-20T01:41:09;14.32;;;6.85;;
52057;SDS011;38063;53.210;6.504;2022-08-20T01:43:59;12.43;;;7.20;;
52057;SDS011;38063;53.210;6.504;2022-08-20T01:46:26;13.57;;;6.75;;
52057;SDS011;38063;53.210;6.504;2022-08-20T01:48:57;10.90;;;6.22;;
52057;SDS011;38063;53.210;6.504;2022-08-20T01:51:24;9.40;;;6.75;;
52057;SDS011;38063;53.210;6.504;2022-08-20T01:53:53;14.02;;;7.50;;
52057;SDS011;38063;53.210;6.504;2022-08-20T01:56:21;10.95;;;6.60;;
52057;SDS011;38063;53.210;6.504;2022-08-20T01:58:50;11.68;;;6.95;;
52057;SDS011;38063;53.210;6.504;2022-08-20T02:01:22;11.75;;;6.65;;
52057;SDS011;38063;53.210;6.504;2022-08-20T02:03:48;13.85;;;6.82;;
52057;SDS011;38063;53.210;6.504;2022-08-20T02:06:14;19.13;;;7.20;;
52057;SDS011;38063;53.210;6.504;2022-08-20T02:08:40;17.73;;;6.63;;
52057;SDS011;38063;53.210;6.504;2022-08-20T02:11:07;16.45;;;6.40;;
52057;SDS011;38063;53.210;6.504;2022-08-20T02:13:33;14.85;;;6.75;;
52057;SDS011;38063;53.210;6.504;2022-08-20T02:15:59;13.90;;;6.22;;
52057;SDS011;38063;53.210;6.504;2022-08-20T02:18:24;20.35;;;7.00;;
52057;SDS011;38063;53.210;6.504;2022-08-20T02:20:50;13.10;;;6.57;;
52057;SDS011;38063;53.210;6.504;2022-08-20T02:23:16;14.18;;;6.53;;
52057;SDS011;38063;53.210;6.504;2022-08-20T02:25:43;12.40;;;7.22;;
52057;SDS011;38063;53.210;6.504;2022-08-20T02:28:12;13.30;;;7.10;;
52057;SDS011;38063;53.210;6.504;2022-08-20T02:30:44;10.80;;;5.85;;
52057;SDS011;38063;53.210;6.504;2022-08-20T02:33:13;14.05;;;6.07;;
52057;SDS011;38063;53.210;6.504;2022-08-20T02:35:41;13.80;;;6.15;;
52057;SDS011;38063;53.210;6.504;2022-08-20T02:38:09;13.07;;;6.18;;
52057;SDS011;38063;53.210;6.504;2022-08-20T02:40:35;14.55;;;5.75;;
52057;SDS011;38063;53.210;6.504;2022-08-20T02:43:02;14.50;;;6.40;;
52057;SDS011;38063;53.210;6.504;2022-08-20T02:45:30;10.10;;;5.95;;
52057;SDS011;38063;53.210;6.504;2022-08-20T02:48:01;12.73;;;6.30;;
52057;SDS011;38063;53.210;6.504;2022-08-20T02:50:28;12.50;;;6.13;;
52057;SDS011;38063;53.210;6.504;2022-08-20T02:52:54;11.38;;;5.53;;
52057;SDS011;38063;53.210;6.504;2022-08-20T02:55:20;11.55;;;5.88;;
52057;SDS011;38063;53.210;6.504;2022-08-20T02:57:47;10.95;;;5.78;;
52057;SDS011;38063;53.210;6.504;2022-08-20T03:00:15;10.20;;;5.45;;
52057;SDS011;38063;53.210;6.504;2022-08-20T03:02:43;16.40;;;5.65;;
52057;SDS011;38063;53.210;6.504;2022-08-20T03:05:09;11.40;;;5.35;;
52057;SDS011;38063;53.210;6.504;2022-08-20T03:07:39;13.30;;;4.80;;
52057;SDS011;38063;53.210;6.504;2022-08-20T03:10:06;9.85;;;4.85;;
52057;SDS011;38063;53.210;6.504;2022-08-20T03:12:33;13.38;;;5.63;;
52057;SDS011;38063;53.210;6.504;2022-08-20T03:14:58;14.45;;;4.95;;
52057;SDS011;38063;53.210;6.504;2022-08-20T03:17:24;10.43;;;4.20;;
52057;SDS011;38063;53.210;6.504;2022-08-20T03:19:49;14.23;;;5.13;;
52057;SDS011;38063;53.210;6.504;2022-08-20T03:22:15;10.65;;;4.50;;
52057;SDS011;38063;53.210;6.504;2022-08-20T03:24:40;6.93;;;4.20;;
52057;SDS011;38063;53.210;6.504;2022-08-20T03:27:06;10.98;;;4.25;;
52057;SDS011;38063;53.210;6.504;2022-08-20T03:29:32;12.02;;;4.88;;
52057;SDS011;38063;53.210;6.504;2022-08-20T03:31:58;12.93;;;4.47;;
52057;SDS011;38063;53.210;6.504;2022-08-20T03:34:23;17.02;;;4.03;;
52057;SDS011;38063;53.210;6.504;2022-08-20T03:36:49;8.52;;;3.72;;
52057;SDS011;38063;53.210;6.504;2022-08-20T03:39:15;11.13;;;4.55;;
52057;SDS011;38063;53.210;6.504;2022-08-20T03:41:40;8.77;;;4.20;;
52057;SDS011;38063;53.210;6.504;2022-08-20T03:44:06;13.77;;;4.25;;
52057;SDS011;38063;53.210;6.504;2022-08-20T03:46:32;15.27;;;4.50;;
52057;SDS011;38063;53.210;6.504;2022-08-20T03:48:58;11.48;;;4.15;;
52057;SDS011;38063;53.210;6.504;2022-08-20T03:51:24;6.88;;;3.65;;
52057;SDS011;38063;53.210;6.504;2022-08-20T03:53:50;9.45;;;3.97;;
52057;SDS011;38063;53.210;6.504;2022-08-20T03:56:15;11.35;;;4.63;;
52057;SDS011;38063;53.210;6.504;2022-08-20T03:58:41;15.68;;;4.88;;
52057;SDS011;38063;53.210;6.504;2022-08-20T04:01:07;11.45;;;5.35;;
52057;SDS011;38063;53.210;6.504;2022-08-20T04:03:33;11.85;;;3.90;;
52057;SDS011;38063;53.210;6.504;2022-08-20T04:05:59;9.23;;;4.45;;
52057;SDS011;38063;53.210;6.504;2022-08-20T04:08:25;10.90;;;4.40;;
52057;SDS011;38063;53.210;6.504;2022-08-20T04:10:54;10.70;;;4.90;;
52057;SDS011;38063;53.210;6.504;2022-08-20T04:13:21;13.77;;;4.60;;
52057;SDS011;38063;53.210;6.504;2022-08-20T04:15:48;10.77;;;4.45;;
52057;SDS011;38063;53.210;6.504;2022-08-20T04:18:14;12.02;;;5.25;;
52057;SDS011;38063;53.210;6.504;2022-08-20T04:20:44;11.23;;;4.45;;
52057;SDS011;38063;53.210;6.504;2022-08-20T04:23:11;14.13;;;4.45;;
52057;SDS011;38063;53.210;6.504;2022-08-20T04:25:38;11.38;;;4.50;;
52057;SDS011;38063;53.210;6.504;2022-08-20T04:28:05;12.68;;;4.35;;
52057;SDS011;38063;53.210;6.504;2022-08-20T04:30:34;11.43;;;4.55;;
52057;SDS011;38063;53.210;6.504;2022-08-20T04:33:00;12.43;;;5.15;;
52057;SDS011;38063;53.210;6.504;2022-08-20T04:35:26;13.13;;;4.50;;
52057;SDS011;38063;53.210;6.504;2022-08-20T04:37:59;11.45;;;4.70;;
52057;SDS011;38063;53.210;6.504;2022-08-20T04:40:27;15.10;;;4.60;;
52057;SDS011;38063;53.210;6.504;2022-08-20T04:43:12;10.80;;;4.95;;
52057;SDS011;38063;53.210;6.504;2022-08-20T04:45:38;13.73;;;4.90;;
52057;SDS011;38063;53.210;6.504;2022-08-20T04:48:04;9.88;;;4.28;;
52057;SDS011;38063;53.210;6.504;2022-08-20T04:50:35;11.00;;;4.03;;
52057;SDS011;38063;53.210;6.504;2022-08-20T04:53:04;9.73;;;4.20;;
52057;SDS011;38063;53.210;6.504;2022-08-20T04:55:31;9.55;;;4.22;;
52057;SDS011;38063;53.210;6.504;2022-08-20T04:58:04;9.65;;;4.38;;
52057;SDS011;38063;53.210;6.504;2022-08-20T05:00:31;10.07;;;4.22;;
52057;SDS011;38063;53.210;6.504;2022-08-20T05:02:57;11.38;;;4.20;;
52057;SDS011;38063;53.210;6.504;2022-08-20T05:05:23;16.60;;;4.50;;
52057;SDS011;38063;53.210;6.504;2022-08-20T05:07:48;12.63;;;5.38;;
52057;SDS011;38063;53.210;6.504;2022-08-20T05:10:15;11.90;;;4.28;;
52057;SDS011;38063;53.210;6.504;2022-08-20T05:12:42;9.93;;;4.03;;
52057;SDS011;38063;53.210;6.504;2022-08-20T05:15:08;10.75;;;4.15;;
52057;SDS011;38063;53.210;6.504;2022-08-20T05:17:36;13.02;;;4.03;;
52057;SDS011;38063;53.210;6.504;2022-08-20T05:20:02;15.20;;;4.70;;
52057;SDS011;38063;53.210;6.504;2022-08-20T05:22:29;12.23;;;4.07;;
52057;SDS011;38063;53.210;6.504;2022-08-20T05:24:54;12.57;;;3.92;;
52057;SDS011;38063;53.210;6.504;2022-08-20T05:27:21;10.05;;;4.28;;
52057;SDS011;38063;53.210;6.504;2022-08-20T05:29:51;8.93;;;3.28;;
52057;SDS011;38063;53.210;6.504;2022-08-20T05:35:03;9.18;;;3.65;;
52057;SDS011;38063;53.210;6.504;2022-08-20T05:37:34;8.65;;;3.35;;
52057;SDS011;38063;53.210;6.504;2022-08-20T05:40:00;11.43;;;3.75;;
52057;SDS011;38063;53.210;6.504;2022-08-20T05:42:31;10.07;;;3.75;;
52057;SDS011;38063;53.210;6.504;2022-08-20T05:44:56;7.18;;;3.00;;
52057;SDS011;38063;53.210;6.504;2022-08-20T05:47:22;12.27;;;3.20;;
52057;SDS011;38063;53.210;6.504;2022-08-20T05:49:52;10.45;;;3.00;;
52057;SDS011;38063;53.210;6.504;2022-08-20T05:52:18;13.70;;;3.35;;
52057;SDS011;38063;53.210;6.504;2022-08-20T05:54:44;9.20;;;2.92;;
52057;SDS011;38063;53.210;6.504;2022-08-20T05:57:09;11.18;;;3.05;;
52057;SDS011;38063;53.210;6.504;2022-08-20T05:59:35;9.73;;;2.80;;
52057;SDS011;38063;53.210;6.504;2022-08-20T06:02:03;7.82;;;2.38;;
52057;SDS011;38063;53.210;6.504;2022-08-20T06:04:49;8.90;;;2.88;;
52057;SDS011;38063;53.210;6.504;2022-08-20T06:07:15;9.35;;;2.63;;
52057;SDS011;38063;53.210;6.504;2022-08-20T06:09:41;9.65;;;2.60;;
52057;SDS011;38063;53.210;6.504;2022-08-20T06:12:07;6.78;;;2.40;;
52057;SDS011;38063;53.210;6.504;2022-08-20T06:14:34;8.38;;;2.40;;
52057;SDS011;38063;53.210;6.504;2022-08-20T06:17:10;7.15;;;2.20;;
52057;SDS011;38063;53.210;6.504;2022-08-20T06:19:41;8.00;;;2.25;;
52057;SDS011;38063;53.210;6.504;2022-08-20T06:22:08;11.70;;;2.03;;
52057;SDS011;38063;53.210;6.504;2022-08-20T06:24:33;10.10;;;2.40;;
52057;SDS011;38063;53.210;6.504;2022-08-20T06:27:00;9.13;;;2.00;;
52057;SDS011;38063;53.210;6.504;2022-08-20T06:29:27;9.27;;;2.55;;
52057;SDS011;38063;53.210;6.504;2022-08-20T06:31:53;9.70;;;2.63;;
52057;SDS011;38063;53.210;6.504;2022-08-20T06:34:20;5.68;;;1.90;;
52057;SDS011;38063;53.210;6.504;2022-08-20T06:36:46;11.98;;;2.95;;
52057;SDS011;38063;53.210;6.504;2022-08-20T06:39:12;8.00;;;2.20;;
52057;SDS011;38063;53.210;6.504;2022-08-20T06:41:39;8.77;;;2.55;;
52057;SDS011;38063;53.210;6.504;2022-08-20T06:44:05;8.23;;;1.67;;
52057;SDS011;38063;53.210;6.504;2022-08-20T06:46:34;7.00;;;1.27;;
52057;SDS011;38063;53.210;6.504;2022-08-20T06:49:00;6.22;;;1.60;;
52057;SDS011;38063;53.210;6.504;2022-08-20T06:51:27;4.95;;;1.30;;
52057;SDS011;38063;53.210;6.504;2022-08-20T06:53:53;6.72;;;1.40;;
52057;SDS011;38063;53.210;6.504;2022-08-20T06:56:19;5.80;;;1.60;;
52057;SDS011;38063;53.210;6.504;2022-08-20T06:58:44;7.25;;;1.55;;
52057;SDS011;38063;53.210;6.504;2022-08-20T07:01:10;5.05;;;1.40;;
52057;SDS011;38063;53.210;6.504;2022-08-20T07:03:37;5.05;;;1.52;;
52057;SDS011;38063;53.210;6.504;2022-08-20T07:06:05;7.53;;;1.45;;
52057;SDS011;38063;53.210;6.504;2022-08-20T07:08:30;5.35;;;1.25;;
52057;SDS011;38063;53.210;6.504;2022-08-20T07:10:56;6.30;;;1.50;;
52057;SDS011;38063;53.210;6.504;2022-08-20T07:13:23;8.02;;;2.05;;
52057;SDS011;38063;53.210;6.504;2022-08-20T07:15:49;9.02;;;2.28;;
52057;SDS011;38063;53.210;6.504;2022-08-20T07:18:14;6.60;;;1.63;;
52057;SDS011;38063;53.210;6.504;2022-08-20T07:20:40;6.97;;;1.63;;
52057;SDS011;38063;53.210;6.504;2022-08-20T07:23:06;8.73;;;1.35;;
52057;SDS011;38063;53.210;6.504;2022-08-20T07:25:36;12.48;;;1.67;;
52057;SDS011;38063;53.210;6.504;2022-08-20T07:28:08;5.70;;;1.38;;
52057;SDS011;38063;53.210;6.504;2022-08-20T07:30:37;4.75;;;1.02;;
52057;SDS011;38063;53.210;6.504;2022-08-20T07:33:22;3.63;;;0.93;;
52057;SDS011;38063;53.210;6.504;2022-08-20T07:35:47;5.65;;;1.23;;
52057;SDS011;38063;53.210;6.504;2022-08-20T07:38:17;7.13;;;1.23;;
52057;SDS011;38063;53.210;6.504;2022-08-20T07:40:53;3.10;;;0.80;;
52057;SDS011;38063;53.210;6.504;2022-08-20T07:43:21;7.53;;;1.85;;
52057;SDS011;38063;53.210;6.504;2022-08-20T07:45:53;7.28;;;1.10;;
52057;SDS011;38063;53.210;6.504;2022-08-20T07:48:21;4.47;;;1.30;;
52057;SDS011;38063;53.210;6.504;2022-08-20T07:50:56;3.95;;;1.10;;
52057;SDS011;38063;53.210;6.504;2022-08-20T07:53:23;5.68;;;1.30;;
52057;SDS011;38063;53.210;6.504;2022-08-20T07:55:49;9.05;;;1.70;;
52057;SDS011;38063;53.210;6.504;2022-08-20T07:58:16;6.13;;;1.30;;
52057;SDS011;38063;53.210;6.504;2022-08-20T08:00:44;8.32;;;1.45;;
52057;SDS011;38063;53.210;6.504;2022-08-20T08:03:11;4.57;;;1.23;;
52057;SDS011;38063;53.210;6.504;2022-08-20T08:05:37;7.55;;;1.52;;
52057;SDS011;38063;53.210;6.504;2022-08-20T08:08:06;4.03;;;1.40;;
52057;SDS011;38063;53.210;6.504;2022-08-20T08:10:34;4.15;;;1.10;;
52057;SDS011;38063;53.210;6.504;2022-08-20T08:13:02;6.38;;;1.20;;
52057;SDS011;38063;53.210;6.504;2022-08-20T08:15:31;6.22;;;1.13;;
52057;SDS011;38063;53.210;6.504;2022-08-20T08:18:08;7.30;;;1.20;;
52057;SDS011;38063;53.210;6.504;2022-08-20T08:20:40;5.15;;;1.42;;
52057;SDS011;38063;53.210;6.504;2022-08-20T08:23:08;5.90;;;1.30;;
52057;SDS011;38063;53.210;6.504;2022-08-20T08:25:39;5.22;;;1.20;;
52057;SDS011;38063;53.210;6.504;2022-08-20T08:28:07;8.20;;;1.48;;
52057;SDS011;38063;53.210;6.504;2022-08-20T08:30:36;6.93;;;1.35;;
52057;SDS011;38063;53.210;6.504;2022-08-20T08:33:04;4.65;;;1.05;;
52057;SDS011;38063;53.210;6.504;2022-08-20T08:35:48;6.28;;;1.65;;
52057;SDS011;38063;53.210;6.504;2022-08-20T08:38:14;6.38;;;1.25;;
52057;SDS011;38063;53.210;6.504;2022-08-20T08:40:41;6.97;;;1.60;;
52057;SDS011;38063;53.210;6.504;2022-08-20T08:43:07;5.20;;;1.33;;
52057;SDS011;38063;53.210;6.504;2022-08-20T08:45:39;6.10;;;1.20;;
52057;SDS011;38063;53.210;6.504;2022-08-20T08:48:08;6.50;;;1.85;;
52057;SDS011;38063;53.210;6.504;2022-08-20T08:50:35;5.82;;;1.27;;
52057;SDS011;38063;53.210;6.504;2022-08-20T08:53:03;4.50;;;1.08;;
52057;SDS011;38063;53.210;6.504;2022-08-20T08:55:29;4.43;;;1.17;;
52057;SDS011;38063;53.210;6.504;2022-08-20T08:57:56;7.82;;;1.38;;
52057;SDS011;38063;53.210;6.504;2022-08-20T09:00:25;7.22;;;1.50;;
52057;SDS011;38063;53.210;6.504;2022-08-20T09:05:35;5.25;;;1.13;;
52057;SDS011;38063;53.210;6.504;2022-08-20T09:08:09;6.07;;;1.60;;
52057;SDS011;38063;53.210;6.504;2022-08-20T09:10:39;4.57;;;1.23;;
52057;SDS011;38063;53.210;6.504;2022-08-20T09:13:05;7.32;;;1.33;;
52057;SDS011;38063;53.210;6.504;2022-08-20T09:15:31;5.55;;;1.33;;
52057;SDS011;38063;53.210;6.504;2022-08-20T09:17:57;5.35;;;1.35;;
52057;SDS011;38063;53.210;6.504;2022-08-20T09:20:22;4.47;;;1.02;;
52057;SDS011;38063;53.210;6.504;2022-08-20T09:22:48;6.80;;;1.38;;
52057;SDS011;38063;53.210;6.504;2022-08-20T09:25:14;6.30;;;1.45;;
52057;SDS011;38063;53.210;6.504;2022-08-20T09:27:40;7.03;;;1.45;;
52057;SDS011;38063;53.210;6.504;2022-08-20T09:30:06;3.65;;;1.02;;
52057;SDS011;38063;53.210;6.504;2022-08-20T09:32:32;6.43;;;1.73;;
52057;SDS011;38063;53.210;6.504;2022-08-20T09:34:58;8.05;;;1.30;;
52057;SDS011;38063;53.210;6.504;2022-08-20T09:37:24;4.72;;;1.08;;
52057;SDS011;38063;53.210;6.504;2022-08-20T09:39:52;5.13;;;1.30;;
52057;SDS011;38063;53.210;6.504;2022-08-20T09:42:20;5.63;;;1.40;;
52057;SDS011;38063;53.210;6.504;2022-08-20T09:44:47;7.43;;;1.50;;
52057;SDS011;38063;53.210;6.504;2022-08-20T09:47:13;4.63;;;1.42;;
52057;SDS011;38063;53.210;6.504;2022-08-20T09:49:41;3.63;;;1.30;;
52057;SDS011;38063;53.210;6.504;2022-08-20T09:52:08;5.22;;;1.27;;
52057;SDS011;38063;53.210;6.504;2022-08-20T09:54:35;4.25;;;1.20;;
52057;SDS011;38063;53.210;6.504;2022-08-20T09:57:03;4.90;;;1.10;;
52057;SDS011;38063;53.210;6.504;2022-08-20T09:59:30;5.72;;;1.30;;
52057;SDS011;38063;53.210;6.504;2022-08-20T10:01:58;5.32;;;1.10;;
52057;SDS011;38063;53.210;6.504;2022-08-20T10:04:24;5.32;;;1.95;;
52057;SDS011;38063;53.210;6.504;2022-08-20T10:06:50;6.65;;;1.25;;
52057;SDS011;38063;53.210;6.504;2022-08-20T10:09:15;5.65;;;1.38;;
52057;SDS011;38063;53.210;6.504;2022-08-20T10:11:41;5.30;;;1.35;;
52057;SDS011;38063;53.210;6.504;2022-08-20T10:14:07;6.95;;;1.45;;
52057;SDS011;38063;53.210;6.504;2022-08-20T10:16:35;5.57;;;1.33;;
52057;SDS011;38063;53.210;6.504;2022-08-20T10:19:02;4.20;;;1.27;;
52057;SDS011;38063;53.210;6.504;2022-08-20T10:21:28;5.10;;;1.40;;
52057;SDS011;38063;53.210;6.504;2022-08-20T10:23:54;8.02;;;1.42;;
52057;SDS011;38063;53.210;6.504;2022-08-20T10:26:21;4.15;;;1.60;;
52057;SDS011;38063;53.210;6.504;2022-08-20T10:28:46;4.47;;;1.45;;
52057;SDS011;38063;53.210;6.504;2022-08-20T10:31:12;5.53;;;1.30;;
52057;SDS011;38063;53.210;6.504;2022-08-20T10:33:38;9.43;;;1.70;;
52057;SDS011;38063;53.210;6.504;2022-08-20T10:36:09;6.32;;;1.38;;
52057;SDS011;38063;53.210;6.504;2022-08-20T10:38:36;5.43;;;1.38;;
52057;SDS011;38063;53.210;6.504;2022-08-20T10:41:03;5.07;;;1.38;;
52057;SDS011;38063;53.210;6.504;2022-08-20T10:43:29;6.63;;;1.58;;
52057;SDS011;38063;53.210;6.504;2022-08-20T10:45:54;5.00;;;1.40;;
52057;SDS011;38063;53.210;6.504;2022-08-20T10:48:20;5.80;;;1.42;;
52057;SDS011;38063;53.210;6.504;2022-08-20T10:50:46;7.45;;;1.63;;
52057;SDS011;38063;53.210;6.504;2022-08-20T10:53:12;8.52;;;1.70;;
52057;SDS011;38063;53.210;6.504;2022-08-20T10:55:38;7.18;;;1.40;;
52057;SDS011;38063;53.210;6.504;2022-08-20T10:58:07;6.20;;;1.60;;
52057;SDS011;38063;53.210;6.504;2022-08-20T11:00:33;4.32;;;1.58;;
52057;SDS011;38063;53.210;6.504;2022-08-20T11:02:59;10.82;;;1.83;;
52057;SDS011;38063;53.210;6.504;2022-08-20T11:05:26;5.97;;;1.27;;
52057;SDS011;38063;53.210;6.504;2022-08-20T11:07:52;3.97;;;1.35;;
52057;SDS011;38063;53.210;6.504;2022-08-20T11:10:19;8.23;;;1.30;;
52057;SDS011;38063;53.210;6.504;2022-08-20T11:12:45;5.45;;;1.13;;
52057;SDS011;38063;53.210;6.504;2022-08-20T11:15:11;5.80;;;1.67;;
52057;SDS011;38063;53.210;6.504;2022-08-20T11:17:39;7.07;;;1.80;;
52057;SDS011;38063;53.210;6.504;2022-08-20T11:20:06;4.75;;;1.40;;
52057;SDS011;38063;53.210;6.504;2022-08-20T11:22:33;6.93;;;1.90;;
52057;SDS011;38063;53.210;6.504;2022-08-20T11:24:59;5.80;;;1.85;;
52057;SDS011;38063;53.210;6.504;2022-08-20T11:27:26;6.18;;;1.40;;
52057;SDS011;38063;53.210;6.504;2022-08-20T11:29:54;7.65;;;1.63;;
52057;SDS011;38063;53.210;6.504;2022-08-20T11:32:22;11.70;;;1.95;;
52057;SDS011;38063;53.210;6.504;2022-08-20T11:34:48;6.88;;;1.77;;
52057;SDS011;38063;53.210;6.504;2022-08-20T11:37:14;8.20;;;1.90;;
52057;SDS011;38063;53.210;6.504;2022-08-20T11:39:42;7.78;;;1.77;;
52057;SDS011;38063;53.210;6.504;2022-08-20T11:42:08;4.75;;;1.20;;
52057;SDS011;38063;53.210;6.504;2022-08-20T11:44:34;3.80;;;1.40;;
52057;SDS011;38063;53.210;6.504;2022-08-20T11:47:00;5.78;;;1.50;;
52057;SDS011;38063;53.210;6.504;2022-08-20T11:49:31;4.32;;;1.40;;
52057;SDS011;38063;53.210;6.504;2022-08-20T11:51:59;5.82;;;1.20;;
52057;SDS011;38063;53.210;6.504;2022-08-20T11:54:25;5.20;;;1.48;;
52057;SDS011;38063;53.210;6.504;2022-08-20T11:56:53;7.72;;;1.50;;
52057;SDS011;38063;53.210;6.504;2022-08-20T11:59:22;6.32;;;1.58;;
52057;SDS011;38063;53.210;6.504;2022-08-20T12:01:48;6.05;;;1.30;;
52057;SDS011;38063;53.210;6.504;2022-08-20T12:04:14;5.68;;;1.60;;
52057;SDS011;38063;53.210;6.504;2022-08-20T12:06:39;8.38;;;1.60;;
52057;SDS011;38063;53.210;6.504;2022-08-20T12:09:05;6.28;;;1.60;;
52057;SDS011;38063;53.210;6.504;2022-08-20T12:11:30;4.65;;;1.40;;
52057;SDS011;38063;53.210;6.504;2022-08-20T12:13:56;5.93;;;1.70;;
52057;SDS011;38063;53.210;6.504;2022-08-20T12:16:22;7.72;;;1.55;;
52057;SDS011;38063;53.210;6.504;2022-08-20T12:18:47;6.10;;;1.70;;
52057;SDS011;38063;53.210;6.504;2022-08-20T12:21:13;7.55;;;1.70;;
52057;SDS011;38063;53.210;6.504;2022-08-20T12:23:39;4.13;;;1.50;;
52057;SDS011;38063;53.210;6.504;2022-08-20T12:26:05;4.93;;;1.50;;
52057;SDS011;38063;53.210;6.504;2022-08-20T12:28:30;4.72;;;1.20;;
52057;SDS011;38063;53.210;6.504;2022-08-20T12:30:57;6.72;;;1.40;;
52057;SDS011;38063;53.210;6.504;2022-08-20T12:33:22;7.50;;;1.65;;
52057;SDS011;38063;53.210;6.504;2022-08-20T12:35:48;6.72;;;1.88;;
52057;SDS011;38063;53.210;6.504;2022-08-20T12:38:14;8.07;;;1.52;;
52057;SDS011;38063;53.210;6.504;2022-08-20T12:40:40;5.72;;;1.45;;
52057;SDS011;38063;53.210;6.504;2022-08-20T12:43:06;7.43;;;1.42;;
52057;SDS011;38063;53.210;6.504;2022-08-20T12:45:32;5.18;;;1.63;;
52057;SDS011;38063;53.210;6.504;2022-08-20T12:48:04;7.10;;;1.60;;
52057;SDS011;38063;53.210;6.504;2022-08-20T12:50:35;8.65;;;1.90;;
52057;SDS011;38063;53.210;6.504;2022-08-20T12:53:02;5.85;;;1.52;;
52057;SDS011;38063;53.210;6.504;2022-08-20T12:55:29;7.85;;;1.65;;
52057;SDS011;38063;53.210;6.504;2022-08-20T12:57:57;5.60;;;1.63;;
52057;SDS011;38063;53.210;6.504;2022-08-20T13:00:26;5.78;;;1.45;;
52057;SDS011;38063;53.210;6.504;2022-08-20T13:03:00;7.60;;;1.80;;
52057;SDS011;38063;53.210;6.504;2022-08-20T13:05:27;5.75;;;1.60;;
52057;SDS011;38063;53.210;6.504;2022-08-20T13:07:53;5.03;;;2.10;;
52057;SDS011;38063;53.210;6.504;2022-08-20T13:10:21;5.97;;;1.67;;
52057;SDS011;38063;53.210;6.504;2022-08-20T13:12:49;4.78;;;1.80;;
52057;SDS011;38063;53.210;6.504;2022-08-20T13:15:15;4.97;;;1.60;;
52057;SDS011;38063;53.210;6.504;2022-08-20T13:17:41;7.32;;;1.70;;
52057;SDS011;38063;53.210;6.504;2022-08-20T13:20:09;5.82;;;1.90;;
52057;SDS011;38063;53.210;6.504;2022-08-20T13:22:39;4.80;;;1.60;;
52057;SDS011;38063;53.210;6.504;2022-08-20T13:25:05;8.25;;;1.60;;
52057;SDS011;38063;53.210;6.504;2022-08-20T13:27:32;7.13;;;1.70;;
52057;SDS011;38063;53.210;6.504;2022-08-20T13:30:03;6.07;;;1.70;;
52057;SDS011;38063;53.210;6.504;2022-08-20T13:32:30;7.03;;;1.70;;
52057;SDS011;38063;53.210;6.504;2022-08-20T13:34:56;7.45;;;2.08;;
52057;SDS011;38063;53.210;6.504;2022-08-20T13:37:23;4.43;;;1.50;;
52057;SDS011;38063;53.210;6.504;2022-08-20T13:39:50;7.53;;;2.05;;
52057;SDS011;38063;53.210;6.504;2022-08-20T13:42:16;6.78;;;1.88;;
52057;SDS011;38063;53.210;6.504;2022-08-20T13:44:42;7.15;;;2.05;;
52057;SDS011;38063;53.210;6.504;2022-08-20T13:47:12;7.35;;;2.08;;
52057;SDS011;38063;53.210;6.504;2022-08-20T13:49:39;7.05;;;1.73;;
52057;SDS011;38063;53.210;6.504;2022-08-20T13:52:05;5.65;;;1.73;;
52057;SDS011;38063;53.210;6.504;2022-08-20T13:54:31;9.10;;;2.22;;
52057;SDS011;38063;53.210;6.504;2022-08-20T13:57:07;6.38;;;1.42;;
52057;SDS011;38063;53.210;6.504;2022-08-20T13:59:38;4.63;;;1.52;;
52057;SDS011;38063;53.210;6.504;2022-08-20T14:02:06;6.93;;;1.63;;
52057;SDS011;38063;53.210;6.504;2022-08-20T14:04:33;4.97;;;1.35;;
52057;SDS011;38063;53.210;6.504;2022-08-20T14:07:16;5.85;;;1.67;;
52057;SDS011;38063;53.210;6.504;2022-08-20T14:10:01;6.05;;;1.52;;
52057;SDS011;38063;53.210;6.504;2022-08-20T14:12:32;6.40;;;1.60;;
52057;SDS011;38063;53.210;6.504;2022-08-20T14:14:58;5.43;;;1.67;;
52057;SDS011;38063;53.210;6.504;2022-08-20T14:17:25;5.93;;;1.55;;
52057;SDS011;38063;53.210;6.504;2022-08-20T14:19:57;5.13;;;1.40;;
52057;SDS011;38063;53.210;6.504;2022-08-20T14:22:24;8.32;;;1.60;;
52057;SDS011;38063;53.210;6.504;2022-08-20T14:24:50;6.75;;;1.67;;
52057;SDS011;38063;53.210;6.504;2022-08-20T14:27:17;5.55;;;1.65;;
52057;SDS011;38063;53.210;6.504;2022-08-20T14:29:45;7.03;;;1.70;;
52057;SDS011;38063;53.210;6.504;2022-08-20T14:32:12;7.78;;;1.60;;
52057;SDS011;38063;53.210;6.504;2022-08-20T14:34:38;6.70;;;2.10;;
52057;SDS011;38063;53.210;6.504;2022-08-20T14:37:20;12.43;;;1.70;;
52057;SDS011;38063;53.210;6.504;2022-08-20T14:39:49;6.00;;;1.70;;
52057;SDS011;38063;53.210;6.504;2022-08-20T14:42:16;7.55;;;1.75;;
52057;SDS011;38063;53.210;6.504;2022-08-20T14:44:43;7.05;;;1.70;;
52057;SDS011;38063;53.210;6.504;2022-08-20T14:47:19;7.97;;;1.50;;
52057;SDS011;38063;53.210;6.504;2022-08-20T14:49:47;6.53;;;1.85;;
52057;SDS011;38063;53.210;6.504;2022-08-20T14:52:15;7.47;;;2.03;;
52057;SDS011;38063;53.210;6.504;2022-08-20T14:54:42;6.95;;;1.73;;
52057;SDS011;38063;53.210;6.504;2022-08-20T14:57:09;6.90;;;1.80;;
52057;SDS011;38063;53.210;6.504;2022-08-20T14:59:35;6.53;;;1.60;;